sensor_id;sensor_type;location;lat;lon;timestamp;P1;durP1;ratioP1;P2;durP2;ratioP2
51194;SDS011;37259;49.972;19.850;2022-10-30T00:00:59;21.6;;;27;;
51194;SDS011;37259;49.972;19.850;2022-10-30T00:01:59;21.6;;;27;;
51194;SDS011;37259;49.972;19.850;2022-10-30T00:02:59;21.6;;;27;;
51194;SDS011;37259;49.972;19.850;2022-10-30T00:03:59;23;;;30.7;;
51194;SDS011;37259;49.972;19.850;2022-10-30T00:04:59;23;;;30.7;;
51194;SDS011;37259;49.972;19.850;2022-10-30T00:06:02;23;;;30.7;;
51194;SDS011;37259;49.972;19.850;2022-10-30T00:06:59;23;;;30.7;;
51194;SDS011;37259;49.972;19.850;2022-10-30T00:07:59;23;;;30.7;;
51194;SDS011;37259;49.972;19.850;2022-10-30T00:08:59;23;;;30.7;;
51194;SDS011;37259;49.972;19.850;2022-10-30T00:09:59;23;;;30.7;;
51194;SDS011;37259;49.972;19.850;2022-10-30T00:11:03;23;;;30.7;;
51194;SDS011;37259;49.972;19.850;2022-10-30T00:11:59;23;;;30.7;;
51194;SDS011;37259;49.972;19.850;2022-10-30T00:12:59;23;;;30.7;;
51194;SDS011;37259;49.972;19.850;2022-10-30T00:13:59;23;;;30.7;;
51194;SDS011;37259;49.972;19.850;2022-10-30T00:14:59;23;;;30.7;;
51194;SDS011;37259;49.972;19.850;2022-10-30T00:15:59;23;;;30.7;;
51194;SDS011;37259;49.972;19.850;2022-10-30T00:16:59;23;;;30.7;;
51194;SDS011;37259;49.972;19.850;2022-10-30T00:17:59;23;;;30.7;;
51194;SDS011;37259;49.972;19.850;2022-10-30T00:18:59;23;;;30.7;;
51194;SDS011;37259;49.972;19.850;2022-10-30T00:19:59;23;;;30.7;;
51194;SDS011;37259;49.972;19.850;2022-10-30T00:21:03;23;;;30.7;;
51194;SDS011;37259;49.972;19.850;2022-10-30T00:21:59;23;;;30.7;;
51194;SDS011;37259;49.972;19.850;2022-10-30T00:22:59;23;;;30.7;;
51194;SDS011;37259;49.972;19.850;2022-10-30T00:23:59;23;;;30.7;;
51194;SDS011;37259;49.972;19.850;2022-10-30T00:24:59;23;;;30.7;;
51194;SDS011;37259;49.972;19.850;2022-10-30T00:26:01;23;;;30.7;;
51194;SDS011;37259;49.972;19.850;2022-10-30T00:26:59;23;;;30.7;;
51194;SDS011;37259;49.972;19.850;2022-10-30T00:27:59;23;;;30.7;;
51194;SDS011;37259;49.972;19.850;2022-10-30T00:28:59;23;;;30.7;;
51194;SDS011;37259;49.972;19.850;2022-10-30T00:29:59;23;;;30.7;;
51194;SDS011;37259;49.972;19.850;2022-10-30T00:30:59;23;;;30.7;;
51194;SDS011;37259;49.972;19.850;2022-10-30T00:31:59;23;;;30.7;;
51194;SDS011;37259;49.972;19.850;2022-10-30T00:32:59;23;;;30.7;;
51194;SDS011;37259;49.972;19.850;2022-10-30T00:33:59;22.4;;;26.8;;
51194;SDS011;37259;49.972;19.850;2022-10-30T00:34:59;22.4;;;26.8;;
51194;SDS011;37259;49.972;19.850;2022-10-30T00:35:59;22.4;;;26.8;;
51194;SDS011;37259;49.972;19.850;2022-10-30T00:36:59;22.4;;;26.8;;
51194;SDS011;37259;49.972;19.850;2022-10-30T00:37:59;22.4;;;26.8;;
51194;SDS011;37259;49.972;19.850;2022-10-30T00:38:59;22.4;;;26.8;;
51194;SDS011;37259;49.972;19.850;2022-10-30T00:39:59;22.4;;;26.8;;
51194;SDS011;37259;49.972;19.850;2022-10-30T00:40:59;22.4;;;26.8;;
51194;SDS011;37259;49.972;19.850;2022-10-30T00:41:59;22.4;;;26.8;;
51194;SDS011;37259;49.972;19.850;2022-10-30T00:42:59;22.4;;;26.8;;
51194;SDS011;37259;49.972;19.850;2022-10-30T00:43:59;22.4;;;26.8;;
51194;SDS011;37259;49.972;19.850;2022-10-30T00:44:59;22.4;;;26.8;;
51194;SDS011;37259;49.972;19.850;2022-10-30T00:46:00;22.4;;;26.8;;
51194;SDS011;37259;49.972;19.850;2022-10-30T00:46:59;22.4;;;26.8;;
51194;SDS011;37259;49.972;19.850;2022-10-30T00:47:59;22.4;;;26.8;;
51194;SDS011;37259;49.972;19.850;2022-10-30T00:48:59;22.4;;;26.8;;
51194;SDS011;37259;49.972;19.850;2022-10-30T00:50:00;22.4;;;26.8;;
51194;SDS011;37259;49.972;19.850;2022-10-30T00:50:59;22.4;;;26.8;;
51194;SDS011;37259;49.972;19.850;2022-10-30T00:51:59;22.4;;;26.8;;
51194;SDS011;37259;49.972;19.850;2022-10-30T00:52:59;22.4;;;26.8;;
51194;SDS011;37259;49.972;19.850;2022-10-30T00:53:59;22.4;;;26.8;;
51194;SDS011;37259;49.972;19.850;2022-10-30T00:55:00;22.4;;;26.8;;
51194;SDS011;37259;49.972;19.850;2022-10-30T00:56:00;22.4;;;26.8;;
51194;SDS011;37259;49.972;19.850;2022-10-30T00:56:59;22.4;;;26.8;;
51194;SDS011;37259;49.972;19.850;2022-10-30T00:57:59;22.4;;;26.8;;
51194;SDS011;37259;49.972;19.850;2022-10-30T00:59:00;22.4;;;26.8;;
51194;SDS011;37259;49.972;19.850;2022-10-30T00:59:59;22.4;;;26.8;;
51194;SDS011;37259;49.972;19.850;2022-10-30T01:00:59;22.4;;;26.8;;
51194;SDS011;37259;49.972;19.850;2022-10-30T01:01:59;22.4;;;26.8;;
51194;SDS011;37259;49.972;19.850;2022-10-30T01:02:59;22.4;;;26.8;;
51194;SDS011;37259;49.972;19.850;2022-10-30T01:03:59;20.1;;;24.7;;
51194;SDS011;37259;49.972;19.850;2022-10-30T01:04:59;20.1;;;24.7;;
51194;SDS011;37259;49.972;19.850;2022-10-30T01:06:00;20.1;;;24.7;;
51194;SDS011;37259;49.972;19.850;2022-10-30T01:06:59;20.1;;;24.7;;
51194;SDS011;37259;49.972;19.850;2022-10-30T01:07:59;20.1;;;24.7;;
51194;SDS011;37259;49.972;19.850;2022-10-30T01:08:59;20.1;;;24.7;;
51194;SDS011;37259;49.972;19.850;2022-10-30T01:09:59;20.1;;;24.7;;
51194;SDS011;37259;49.972;19.850;2022-10-30T01:10:59;20.1;;;24.7;;
51194;SDS011;37259;49.972;19.850;2022-10-30T01:11:59;20.1;;;24.7;;
51194;SDS011;37259;49.972;19.850;2022-10-30T01:12:59;20.1;;;24.7;;
51194;SDS011;37259;49.972;19.850;2022-10-30T01:14:00;20.1;;;24.7;;
51194;SDS011;37259;49.972;19.850;2022-10-30T01:14:59;20.1;;;24.7;;
51194;SDS011;37259;49.972;19.850;2022-10-30T01:16:03;20.1;;;24.7;;
51194;SDS011;37259;49.972;19.850;2022-10-30T01:17:04;20.1;;;24.7;;
51194;SDS011;37259;49.972;19.850;2022-10-30T01:18:10;20.1;;;24.7;;
51194;SDS011;37259;49.972;19.850;2022-10-30T01:19:02;20.1;;;24.7;;
51194;SDS011;37259;49.972;19.850;2022-10-30T01:20:01;20.1;;;24.7;;
51194;SDS011;37259;49.972;19.850;2022-10-30T01:21:03;20.1;;;24.7;;
51194;SDS011;37259;49.972;19.850;2022-10-30T01:22:03;20.1;;;24.7;;
51194;SDS011;37259;49.972;19.850;2022-10-30T01:23:01;20.1;;;24.7;;
51194;SDS011;37259;49.972;19.850;2022-10-30T01:24:05;20.1;;;24.7;;
51194;SDS011;37259;49.972;19.850;2022-10-30T01:25:02;20.1;;;24.7;;
51194;SDS011;37259;49.972;19.850;2022-10-30T01:26:01;20.1;;;24.7;;
51194;SDS011;37259;49.972;19.850;2022-10-30T01:27:02;20.1;;;24.7;;
51194;SDS011;37259;49.972;19.850;2022-10-30T01:28:01;20.1;;;24.7;;
51194;SDS011;37259;49.972;19.850;2022-10-30T01:29:02;20.1;;;24.7;;
51194;SDS011;37259;49.972;19.850;2022-10-30T01:30:01;20.1;;;24.7;;
51194;SDS011;37259;49.972;19.850;2022-10-30T01:31:01;20.1;;;24.7;;
51194;SDS011;37259;49.972;19.850;2022-10-30T01:32:03;20.1;;;24.7;;
51194;SDS011;37259;49.972;19.850;2022-10-30T01:33:02;20.1;;;24.7;;
51194;SDS011;37259;49.972;19.850;2022-10-30T01:34:01;22.3;;;26.9;;
51194;SDS011;37259;49.972;19.850;2022-10-30T01:35:01;22.3;;;26.9;;
51194;SDS011;37259;49.972;19.850;2022-10-30T01:36:00;22.3;;;26.9;;
51194;SDS011;37259;49.972;19.850;2022-10-30T01:37:00;22.3;;;26.9;;
51194;SDS011;37259;49.972;19.850;2022-10-30T01:38:00;22.3;;;26.9;;
51194;SDS011;37259;49.972;19.850;2022-10-30T01:39:00;22.3;;;26.9;;
51194;SDS011;37259;49.972;19.850;2022-10-30T01:40:02;22.3;;;26.9;;
51194;SDS011;37259;49.972;19.850;2022-10-30T01:40:59;22.3;;;26.9;;
51194;SDS011;37259;49.972;19.850;2022-10-30T01:41:59;22.3;;;26.9;;
51194;SDS011;37259;49.972;19.850;2022-10-30T01:42:59;22.3;;;26.9;;
51194;SDS011;37259;49.972;19.850;2022-10-30T01:44:00;22.3;;;26.9;;
51194;SDS011;37259;49.972;19.850;2022-10-30T01:44:59;22.3;;;26.9;;
51194;SDS011;37259;49.972;19.850;2022-10-30T01:46:04;22.3;;;26.9;;
51194;SDS011;37259;49.972;19.850;2022-10-30T01:47:02;22.3;;;26.9;;
51194;SDS011;37259;49.972;19.850;2022-10-30T01:48:05;22.3;;;26.9;;
51194;SDS011;37259;49.972;19.850;2022-10-30T01:49:03;22.3;;;26.9;;
51194;SDS011;37259;49.972;19.850;2022-10-30T01:50:02;22.3;;;26.9;;
51194;SDS011;37259;49.972;19.850;2022-10-30T01:50:59;22.3;;;26.9;;
51194;SDS011;37259;49.972;19.850;2022-10-30T01:52:01;22.3;;;26.9;;
51194;SDS011;37259;49.972;19.850;2022-10-30T01:53:00;22.3;;;26.9;;
51194;SDS011;37259;49.972;19.850;2022-10-30T01:54:00;22.3;;;26.9;;
51194;SDS011;37259;49.972;19.850;2022-10-30T01:55:01;22.3;;;26.9;;
51194;SDS011;37259;49.972;19.850;2022-10-30T01:56:00;22.3;;;26.9;;
51194;SDS011;37259;49.972;19.850;2022-10-30T01:57:01;22.3;;;26.9;;
51194;SDS011;37259;49.972;19.850;2022-10-30T01:58:01;22.3;;;26.9;;
51194;SDS011;37259;49.972;19.850;2022-10-30T01:59:00;22.3;;;26.9;;
51194;SDS011;37259;49.972;19.850;2022-10-30T02:00:00;22.3;;;26.9;;
51194;SDS011;37259;49.972;19.850;2022-10-30T02:00:59;22.3;;;26.9;;
51194;SDS011;37259;49.972;19.850;2022-10-30T02:01:59;22.3;;;26.9;;
51194;SDS011;37259;49.972;19.850;2022-10-30T02:02:59;22.3;;;26.9;;
51194;SDS011;37259;49.972;19.850;2022-10-30T02:03:59;19.6;;;22.2;;
51194;SDS011;37259;49.972;19.850;2022-10-30T02:04:59;19.6;;;22.2;;
51194;SDS011;37259;49.972;19.850;2022-10-30T02:05:59;19.6;;;22.2;;
51194;SDS011;37259;49.972;19.850;2022-10-30T02:06:59;19.6;;;22.2;;
51194;SDS011;37259;49.972;19.850;2022-10-30T02:07:59;19.6;;;22.2;;
51194;SDS011;37259;49.972;19.850;2022-10-30T02:08:59;19.6;;;22.2;;
51194;SDS011;37259;49.972;19.850;2022-10-30T02:09:59;19.6;;;22.2;;
51194;SDS011;37259;49.972;19.850;2022-10-30T02:10:59;19.6;;;22.2;;
51194;SDS011;37259;49.972;19.850;2022-10-30T02:11:59;19.6;;;22.2;;
51194;SDS011;37259;49.972;19.850;2022-10-30T02:12:59;19.6;;;22.2;;
51194;SDS011;37259;49.972;19.850;2022-10-30T02:13:59;19.6;;;22.2;;
51194;SDS011;37259;49.972;19.850;2022-10-30T02:14:59;19.6;;;22.2;;
51194;SDS011;37259;49.972;19.850;2022-10-30T02:15:59;19.6;;;22.2;;
51194;SDS011;37259;49.972;19.850;2022-10-30T02:16:59;19.6;;;22.2;;
51194;SDS011;37259;49.972;19.850;2022-10-30T02:17:59;19.6;;;22.2;;
51194;SDS011;37259;49.972;19.850;2022-10-30T02:18:59;19.6;;;22.2;;
51194;SDS011;37259;49.972;19.850;2022-10-30T02:19:59;19.6;;;22.2;;
51194;SDS011;37259;49.972;19.850;2022-10-30T02:20:59;19.6;;;22.2;;
51194;SDS011;37259;49.972;19.850;2022-10-30T02:21:59;19.6;;;22.2;;
51194;SDS011;37259;49.972;19.850;2022-10-30T02:22:59;19.6;;;22.2;;
51194;SDS011;37259;49.972;19.850;2022-10-30T02:23:59;19.6;;;22.2;;
51194;SDS011;37259;49.972;19.850;2022-10-30T02:24:59;19.6;;;22.2;;
51194;SDS011;37259;49.972;19.850;2022-10-30T02:25:59;19.6;;;22.2;;
51194;SDS011;37259;49.972;19.850;2022-10-30T02:26:59;19.6;;;22.2;;
51194;SDS011;37259;49.972;19.850;2022-10-30T02:27:59;19.6;;;22.2;;
51194;SDS011;37259;49.972;19.850;2022-10-30T02:28:59;19.6;;;22.2;;
51194;SDS011;37259;49.972;19.850;2022-10-30T02:29:59;19.6;;;22.2;;
51194;SDS011;37259;49.972;19.850;2022-10-30T02:30:59;19.6;;;22.2;;
51194;SDS011;37259;49.972;19.850;2022-10-30T02:31:59;19.6;;;22.2;;
51194;SDS011;37259;49.972;19.850;2022-10-30T02:32:59;19.6;;;22.2;;
51194;SDS011;37259;49.972;19.850;2022-10-30T02:33:59;18.4;;;24.3;;
51194;SDS011;37259;49.972;19.850;2022-10-30T02:34:59;18.4;;;24.3;;
51194;SDS011;37259;49.972;19.850;2022-10-30T02:35:59;18.4;;;24.3;;
51194;SDS011;37259;49.972;19.850;2022-10-30T02:36:59;18.4;;;24.3;;
51194;SDS011;37259;49.972;19.850;2022-10-30T02:37:59;18.4;;;24.3;;
51194;SDS011;37259;49.972;19.850;2022-10-30T02:38:59;18.4;;;24.3;;
51194;SDS011;37259;49.972;19.850;2022-10-30T02:39:59;18.4;;;24.3;;
51194;SDS011;37259;49.972;19.850;2022-10-30T02:40:59;18.4;;;24.3;;
51194;SDS011;37259;49.972;19.850;2022-10-30T02:41:59;18.4;;;24.3;;
51194;SDS011;37259;49.972;19.850;2022-10-30T02:42:59;18.4;;;24.3;;
51194;SDS011;37259;49.972;19.850;2022-10-30T02:43:59;18.4;;;24.3;;
51194;SDS011;37259;49.972;19.850;2022-10-30T02:44:59;18.4;;;24.3;;
51194;SDS011;37259;49.972;19.850;2022-10-30T02:45:59;18.4;;;24.3;;
51194;SDS011;37259;49.972;19.850;2022-10-30T02:46:59;18.4;;;24.3;;
51194;SDS011;37259;49.972;19.850;2022-10-30T02:47:59;18.4;;;24.3;;
51194;SDS011;37259;49.972;19.850;2022-10-30T02:48:59;18.4;;;24.3;;
51194;SDS011;37259;49.972;19.850;2022-10-30T02:49:59;18.4;;;24.3;;
51194;SDS011;37259;49.972;19.850;2022-10-30T02:50:59;18.4;;;24.3;;
51194;SDS011;37259;49.972;19.850;2022-10-30T02:51:59;18.4;;;24.3;;
51194;SDS011;37259;49.972;19.850;2022-10-30T02:52:59;18.4;;;24.3;;
51194;SDS011;37259;49.972;19.850;2022-10-30T02:53:59;18.4;;;24.3;;
51194;SDS011;37259;49.972;19.850;2022-10-30T02:54:59;18.4;;;24.3;;
51194;SDS011;37259;49.972;19.850;2022-10-30T02:56:01;18.4;;;24.3;;
51194;SDS011;37259;49.972;19.850;2022-10-30T02:56:59;18.4;;;24.3;;
51194;SDS011;37259;49.972;19.850;2022-10-30T02:57:59;18.4;;;24.3;;
51194;SDS011;37259;49.972;19.850;2022-10-30T02:58:59;18.4;;;24.3;;
51194;SDS011;37259;49.972;19.850;2022-10-30T02:59:59;18.4;;;24.3;;
51194;SDS011;37259;49.972;19.850;2022-10-30T03:01:03;18.4;;;24.3;;
51194;SDS011;37259;49.972;19.850;2022-10-30T03:01:59;18.4;;;24.3;;
51194;SDS011;37259;49.972;19.850;2022-10-30T03:02:59;18.4;;;24.3;;
51194;SDS011;37259;49.972;19.850;2022-10-30T03:03:59;18.2;;;21.2;;
51194;SDS011;37259;49.972;19.850;2022-10-30T03:04:59;18.2;;;21.2;;
51194;SDS011;37259;49.972;19.850;2022-10-30T03:05:59;18.2;;;21.2;;
51194;SDS011;37259;49.972;19.850;2022-10-30T03:06:59;18.2;;;21.2;;
51194;SDS011;37259;49.972;19.850;2022-10-30T03:07:59;18.2;;;21.2;;
51194;SDS011;37259;49.972;19.850;2022-10-30T03:08:59;18.2;;;21.2;;
51194;SDS011;37259;49.972;19.850;2022-10-30T03:09:59;18.2;;;21.2;;
51194;SDS011;37259;49.972;19.850;2022-10-30T03:10:59;18.2;;;21.2;;
51194;SDS011;37259;49.972;19.850;2022-10-30T03:11:59;18.2;;;21.2;;
51194;SDS011;37259;49.972;19.850;2022-10-30T03:12:59;18.2;;;21.2;;
51194;SDS011;37259;49.972;19.850;2022-10-30T03:13:59;18.2;;;21.2;;
51194;SDS011;37259;49.972;19.850;2022-10-30T03:14:59;18.2;;;21.2;;
51194;SDS011;37259;49.972;19.850;2022-10-30T03:15:59;18.2;;;21.2;;
51194;SDS011;37259;49.972;19.850;2022-10-30T03:16:59;18.2;;;21.2;;
51194;SDS011;37259;49.972;19.850;2022-10-30T03:17:59;18.2;;;21.2;;
51194;SDS011;37259;49.972;19.850;2022-10-30T03:18:59;18.2;;;21.2;;
51194;SDS011;37259;49.972;19.850;2022-10-30T03:19:59;18.2;;;21.2;;
51194;SDS011;37259;49.972;19.850;2022-10-30T03:20:59;18.2;;;21.2;;
51194;SDS011;37259;49.972;19.850;2022-10-30T03:21:59;18.2;;;21.2;;
51194;SDS011;37259;49.972;19.850;2022-10-30T03:22:59;18.2;;;21.2;;
51194;SDS011;37259;49.972;19.850;2022-10-30T03:23:59;18.2;;;21.2;;
51194;SDS011;37259;49.972;19.850;2022-10-30T03:24:59;18.2;;;21.2;;
51194;SDS011;37259;49.972;19.850;2022-10-30T03:25:59;18.2;;;21.2;;
51194;SDS011;37259;49.972;19.850;2022-10-30T03:26:59;18.2;;;21.2;;
51194;SDS011;37259;49.972;19.850;2022-10-30T03:27:59;18.2;;;21.2;;
51194;SDS011;37259;49.972;19.850;2022-10-30T03:28:59;18.2;;;21.2;;
51194;SDS011;37259;49.972;19.850;2022-10-30T03:29:59;18.2;;;21.2;;
51194;SDS011;37259;49.972;19.850;2022-10-30T03:30:59;18.2;;;21.2;;
51194;SDS011;37259;49.972;19.850;2022-10-30T03:31:59;18.2;;;21.2;;
51194;SDS011;37259;49.972;19.850;2022-10-30T03:32:59;18.2;;;21.2;;
51194;SDS011;37259;49.972;19.850;2022-10-30T03:33:59;19.8;;;23.2;;
51194;SDS011;37259;49.972;19.850;2022-10-30T03:34:59;19.8;;;23.2;;
51194;SDS011;37259;49.972;19.850;2022-10-30T03:35:59;19.8;;;23.2;;
51194;SDS011;37259;49.972;19.850;2022-10-30T03:36:59;19.8;;;23.2;;
51194;SDS011;37259;49.972;19.850;2022-10-30T03:37:59;19.8;;;23.2;;
51194;SDS011;37259;49.972;19.850;2022-10-30T03:38:59;19.8;;;23.2;;
51194;SDS011;37259;49.972;19.850;2022-10-30T03:39:59;19.8;;;23.2;;
51194;SDS011;37259;49.972;19.850;2022-10-30T03:40:59;19.8;;;23.2;;
51194;SDS011;37259;49.972;19.850;2022-10-30T03:41:59;19.8;;;23.2;;
51194;SDS011;37259;49.972;19.850;2022-10-30T03:42:59;19.8;;;23.2;;
51194;SDS011;37259;49.972;19.850;2022-10-30T03:43:59;19.8;;;23.2;;
51194;SDS011;37259;49.972;19.850;2022-10-30T03:44:59;19.8;;;23.2;;
51194;SDS011;37259;49.972;19.850;2022-10-30T03:45:59;19.8;;;23.2;;
51194;SDS011;37259;49.972;19.850;2022-10-30T03:46:59;19.8;;;23.2;;
51194;SDS011;37259;49.972;19.850;2022-10-30T03:47:59;19.8;;;23.2;;
51194;SDS011;37259;49.972;19.850;2022-10-30T03:48:59;19.8;;;23.2;;
51194;SDS011;37259;49.972;19.850;2022-10-30T03:49:59;19.8;;;23.2;;
51194;SDS011;37259;49.972;19.850;2022-10-30T03:50:59;19.8;;;23.2;;
51194;SDS011;37259;49.972;19.850;2022-10-30T03:51:59;19.8;;;23.2;;
51194;SDS011;37259;49.972;19.850;2022-10-30T03:52:59;19.8;;;23.2;;
51194;SDS011;37259;49.972;19.850;2022-10-30T03:53:59;19.8;;;23.2;;
51194;SDS011;37259;49.972;19.850;2022-10-30T03:54:59;19.8;;;23.2;;
51194;SDS011;37259;49.972;19.850;2022-10-30T03:55:59;19.8;;;23.2;;
51194;SDS011;37259;49.972;19.850;2022-10-30T03:56:59;19.8;;;23.2;;
51194;SDS011;37259;49.972;19.850;2022-10-30T03:57:59;19.8;;;23.2;;
51194;SDS011;37259;49.972;19.850;2022-10-30T03:58:59;19.8;;;23.2;;
51194;SDS011;37259;49.972;19.850;2022-10-30T03:59:59;19.8;;;23.2;;
51194;SDS011;37259;49.972;19.850;2022-10-30T04:00:59;19.8;;;23.2;;
51194;SDS011;37259;49.972;19.850;2022-10-30T04:01:59;19.8;;;23.2;;
51194;SDS011;37259;49.972;19.850;2022-10-30T04:02:59;19.8;;;23.2;;
51194;SDS011;37259;49.972;19.850;2022-10-30T04:03:59;18.6;;;23;;
51194;SDS011;37259;49.972;19.850;2022-10-30T04:04:59;18.6;;;23;;
51194;SDS011;37259;49.972;19.850;2022-10-30T04:05:59;18.6;;;23;;
51194;SDS011;37259;49.972;19.850;2022-10-30T04:06:59;18.6;;;23;;
51194;SDS011;37259;49.972;19.850;2022-10-30T04:08:00;18.6;;;23;;
51194;SDS011;37259;49.972;19.850;2022-10-30T04:08:59;18.6;;;23;;
51194;SDS011;37259;49.972;19.850;2022-10-30T04:09:59;18.6;;;23;;
51194;SDS011;37259;49.972;19.850;2022-10-30T04:10:59;18.6;;;23;;
51194;SDS011;37259;49.972;19.850;2022-10-30T04:11:59;18.6;;;23;;
51194;SDS011;37259;49.972;19.850;2022-10-30T04:12:59;18.6;;;23;;
51194;SDS011;37259;49.972;19.850;2022-10-30T04:13:59;18.6;;;23;;
51194;SDS011;37259;49.972;19.850;2022-10-30T04:14:59;18.6;;;23;;
51194;SDS011;37259;49.972;19.850;2022-10-30T04:15:59;18.6;;;23;;
51194;SDS011;37259;49.972;19.850;2022-10-30T04:16:59;18.6;;;23;;
51194;SDS011;37259;49.972;19.850;2022-10-30T04:17:59;18.6;;;23;;
51194;SDS011;37259;49.972;19.850;2022-10-30T04:18:59;18.6;;;23;;
51194;SDS011;37259;49.972;19.850;2022-10-30T04:19:59;18.6;;;23;;
51194;SDS011;37259;49.972;19.850;2022-10-30T04:20:59;18.6;;;23;;
51194;SDS011;37259;49.972;19.850;2022-10-30T04:21:59;18.6;;;23;;
51194;SDS011;37259;49.972;19.850;2022-10-30T04:22:59;18.6;;;23;;
51194;SDS011;37259;49.972;19.850;2022-10-30T04:23:59;18.6;;;23;;
51194;SDS011;37259;49.972;19.850;2022-10-30T04:24:59;18.6;;;23;;
51194;SDS011;37259;49.972;19.850;2022-10-30T04:25:59;18.6;;;23;;
51194;SDS011;37259;49.972;19.850;2022-10-30T04:26:59;18.6;;;23;;
51194;SDS011;37259;49.972;19.850;2022-10-30T04:27:59;18.6;;;23;;
51194;SDS011;37259;49.972;19.850;2022-10-30T04:28:59;18.6;;;23;;
51194;SDS011;37259;49.972;19.850;2022-10-30T04:29:59;18.6;;;23;;
51194;SDS011;37259;49.972;19.850;2022-10-30T04:30:59;18.6;;;23;;
51194;SDS011;37259;49.972;19.850;2022-10-30T04:31:59;18.6;;;23;;
51194;SDS011;37259;49.972;19.850;2022-10-30T04:32:59;18.6;;;23;;
51194;SDS011;37259;49.972;19.850;2022-10-30T04:33:59;17.9;;;22.9;;
51194;SDS011;37259;49.972;19.850;2022-10-30T04:34:59;17.9;;;22.9;;
51194;SDS011;37259;49.972;19.850;2022-10-30T04:35:59;17.9;;;22.9;;
51194;SDS011;37259;49.972;19.850;2022-10-30T04:36:59;17.9;;;22.9;;
51194;SDS011;37259;49.972;19.850;2022-10-30T04:37:59;17.9;;;22.9;;
51194;SDS011;37259;49.972;19.850;2022-10-30T04:38:59;17.9;;;22.9;;
51194;SDS011;37259;49.972;19.850;2022-10-30T04:39:59;17.9;;;22.9;;
51194;SDS011;37259;49.972;19.850;2022-10-30T04:40:59;17.9;;;22.9;;
51194;SDS011;37259;49.972;19.850;2022-10-30T04:41:59;17.9;;;22.9;;
51194;SDS011;37259;49.972;19.850;2022-10-30T04:42:59;17.9;;;22.9;;
51194;SDS011;37259;49.972;19.850;2022-10-30T04:43:59;17.9;;;22.9;;
51194;SDS011;37259;49.972;19.850;2022-10-30T04:44:59;17.9;;;22.9;;
51194;SDS011;37259;49.972;19.850;2022-10-30T04:46:02;17.9;;;22.9;;
51194;SDS011;37259;49.972;19.850;2022-10-30T04:46:59;17.9;;;22.9;;
51194;SDS011;37259;49.972;19.850;2022-10-30T04:47:59;17.9;;;22.9;;
51194;SDS011;37259;49.972;19.850;2022-10-30T04:48:59;17.9;;;22.9;;
51194;SDS011;37259;49.972;19.850;2022-10-30T04:49:59;17.9;;;22.9;;
51194;SDS011;37259;49.972;19.850;2022-10-30T04:50:59;17.9;;;22.9;;
51194;SDS011;37259;49.972;19.850;2022-10-30T04:51:59;17.9;;;22.9;;
51194;SDS011;37259;49.972;19.850;2022-10-30T04:52:59;17.9;;;22.9;;
51194;SDS011;37259;49.972;19.850;2022-10-30T04:53:59;17.9;;;22.9;;
51194;SDS011;37259;49.972;19.850;2022-10-30T04:54:59;17.9;;;22.9;;
51194;SDS011;37259;49.972;19.850;2022-10-30T04:55:59;17.9;;;22.9;;
51194;SDS011;37259;49.972;19.850;2022-10-30T04:56:59;17.9;;;22.9;;
51194;SDS011;37259;49.972;19.850;2022-10-30T04:57:59;17.9;;;22.9;;
51194;SDS011;37259;49.972;19.850;2022-10-30T04:58:59;17.9;;;22.9;;
51194;SDS011;37259;49.972;19.850;2022-10-30T04:59:59;17.9;;;22.9;;
51194;SDS011;37259;49.972;19.850;2022-10-30T05:00:59;17.9;;;22.9;;
51194;SDS011;37259;49.972;19.850;2022-10-30T05:01:59;17.9;;;22.9;;
51194;SDS011;37259;49.972;19.850;2022-10-30T05:02:59;17.9;;;22.9;;
51194;SDS011;37259;49.972;19.850;2022-10-30T05:03:59;17;;;20.7;;
51194;SDS011;37259;49.972;19.850;2022-10-30T05:04:59;17;;;20.7;;
51194;SDS011;37259;49.972;19.850;2022-10-30T05:06:00;17;;;20.7;;
51194;SDS011;37259;49.972;19.850;2022-10-30T05:06:59;17;;;20.7;;
51194;SDS011;37259;49.972;19.850;2022-10-30T05:07:59;17;;;20.7;;
51194;SDS011;37259;49.972;19.850;2022-10-30T05:08:59;17;;;20.7;;
51194;SDS011;37259;49.972;19.850;2022-10-30T05:09:59;17;;;20.7;;
51194;SDS011;37259;49.972;19.850;2022-10-30T05:10:59;17;;;20.7;;
51194;SDS011;37259;49.972;19.850;2022-10-30T05:11:59;17;;;20.7;;
51194;SDS011;37259;49.972;19.850;2022-10-30T05:12:59;17;;;20.7;;
51194;SDS011;37259;49.972;19.850;2022-10-30T05:13:59;17;;;20.7;;
51194;SDS011;37259;49.972;19.850;2022-10-30T05:14:59;17;;;20.7;;
51194;SDS011;37259;49.972;19.850;2022-10-30T05:15:59;17;;;20.7;;
51194;SDS011;37259;49.972;19.850;2022-10-30T05:16:59;17;;;20.7;;
51194;SDS011;37259;49.972;19.850;2022-10-30T05:17:59;17;;;20.7;;
51194;SDS011;37259;49.972;19.850;2022-10-30T05:18:59;17;;;20.7;;
51194;SDS011;37259;49.972;19.850;2022-10-30T05:19:59;17;;;20.7;;
51194;SDS011;37259;49.972;19.850;2022-10-30T05:20:59;17;;;20.7;;
51194;SDS011;37259;49.972;19.850;2022-10-30T05:21:59;17;;;20.7;;
51194;SDS011;37259;49.972;19.850;2022-10-30T05:22:59;17;;;20.7;;
51194;SDS011;37259;49.972;19.850;2022-10-30T05:23:59;17;;;20.7;;
51194;SDS011;37259;49.972;19.850;2022-10-30T05:24:59;17;;;20.7;;
51194;SDS011;37259;49.972;19.850;2022-10-30T05:25:59;17;;;20.7;;
51194;SDS011;37259;49.972;19.850;2022-10-30T05:26:59;17;;;20.7;;
51194;SDS011;37259;49.972;19.850;2022-10-30T05:27:59;17;;;20.7;;
51194;SDS011;37259;49.972;19.850;2022-10-30T05:28:59;17;;;20.7;;
51194;SDS011;37259;49.972;19.850;2022-10-30T05:29:59;17;;;20.7;;
51194;SDS011;37259;49.972;19.850;2022-10-30T05:30:59;17;;;20.7;;
51194;SDS011;37259;49.972;19.850;2022-10-30T05:31:59;17;;;20.7;;
51194;SDS011;37259;49.972;19.850;2022-10-30T05:32:59;17;;;20.7;;
51194;SDS011;37259;49.972;19.850;2022-10-30T05:33:59;16.8;;;21.4;;
51194;SDS011;37259;49.972;19.850;2022-10-30T05:34:59;16.8;;;21.4;;
51194;SDS011;37259;49.972;19.850;2022-10-30T05:35:59;16.8;;;21.4;;
51194;SDS011;37259;49.972;19.850;2022-10-30T05:36:59;16.8;;;21.4;;
51194;SDS011;37259;49.972;19.850;2022-10-30T05:37:59;16.8;;;21.4;;
51194;SDS011;37259;49.972;19.850;2022-10-30T05:38:59;16.8;;;21.4;;
51194;SDS011;37259;49.972;19.850;2022-10-30T05:39:59;16.8;;;21.4;;
51194;SDS011;37259;49.972;19.850;2022-10-30T05:40:59;16.8;;;21.4;;
51194;SDS011;37259;49.972;19.850;2022-10-30T05:41:59;16.8;;;21.4;;
51194;SDS011;37259;49.972;19.850;2022-10-30T05:42:59;16.8;;;21.4;;
51194;SDS011;37259;49.972;19.850;2022-10-30T05:43:59;16.8;;;21.4;;
51194;SDS011;37259;49.972;19.850;2022-10-30T05:44:59;16.8;;;21.4;;
51194;SDS011;37259;49.972;19.850;2022-10-30T05:45:59;16.8;;;21.4;;
51194;SDS011;37259;49.972;19.850;2022-10-30T05:46:59;16.8;;;21.4;;
51194;SDS011;37259;49.972;19.850;2022-10-30T05:48:00;16.8;;;21.4;;
51194;SDS011;37259;49.972;19.850;2022-10-30T05:48:59;16.8;;;21.4;;
51194;SDS011;37259;49.972;19.850;2022-10-30T05:49:59;16.8;;;21.4;;
51194;SDS011;37259;49.972;19.850;2022-10-30T05:50:59;16.8;;;21.4;;
51194;SDS011;37259;49.972;19.850;2022-10-30T05:51:59;16.8;;;21.4;;
51194;SDS011;37259;49.972;19.850;2022-10-30T05:52:59;16.8;;;21.4;;
51194;SDS011;37259;49.972;19.850;2022-10-30T05:53:59;16.8;;;21.4;;
51194;SDS011;37259;49.972;19.850;2022-10-30T05:54:59;16.8;;;21.4;;
51194;SDS011;37259;49.972;19.850;2022-10-30T05:55:59;16.8;;;21.4;;
51194;SDS011;37259;49.972;19.850;2022-10-30T05:56:59;16.8;;;21.4;;
51194;SDS011;37259;49.972;19.850;2022-10-30T05:57:59;16.8;;;21.4;;
51194;SDS011;37259;49.972;19.850;2022-10-30T05:58:59;16.8;;;21.4;;